sensor_id;sensor_type;location;lat;lon;timestamp;P1;durP1;ratioP1;P2;durP2;ratioP2
12059;SDS011;6091;51.432;6.880;2023-12-20T00:02:25;0.70;;;0.70;;
12059;SDS011;6091;51.432;6.880;2023-12-20T00:04:52;0.50;;;0.50;;
12059;SDS011;6091;51.432;6.880;2023-12-20T00:07:22;0.60;;;0.60;;
12059;SDS011;6091;51.432;6.880;2023-12-20T00:09:49;0.50;;;0.50;;
12059;SDS011;6091;51.432;6.880;2023-12-20T00:12:16;0.68;;;0.68;;
12059;SDS011;6091;51.432;6.880;2023-12-20T00:14:43;0.60;;;0.60;;
12059;SDS011;6091;51.432;6.880;2023-12-20T00:17:10;0.70;;;0.70;;
12059;SDS011;6091;51.432;6.880;2023-12-20T00:19:38;0.60;;;0.60;;
12059;SDS011;6091;51.432;6.880;2023-12-20T00:22:05;0.60;;;0.60;;
12059;SDS011;6091;51.432;6.880;2023-12-20T00:24:32;0.75;;;0.75;;
12059;SDS011;6091;51.432;6.880;2023-12-20T00:27:00;0.50;;;0.50;;
12059;SDS011;6091;51.432;6.880;2023-12-20T00:29:27;0.60;;;0.60;;
12059;SDS011;6091;51.432;6.880;2023-12-20T00:31:54;0.50;;;0.50;;
12059;SDS011;6091;51.432;6.880;2023-12-20T00:34:21;0.50;;;0.50;;
12059;SDS011;6091;51.432;6.880;2023-12-20T00:36:48;0.60;;;0.60;;
12059;SDS011;6091;51.432;6.880;2023-12-20T00:39:15;0.70;;;0.63;;
12059;SDS011;6091;51.432;6.880;2023-12-20T00:41:42;0.60;;;0.60;;
12059;SDS011;6091;51.432;6.880;2023-12-20T00:44:09;0.50;;;0.50;;
12059;SDS011;6091;51.432;6.880;2023-12-20T00:46:37;0.52;;;0.52;;
12059;SDS011;6091;51.432;6.880;2023-12-20T00:49:04;0.50;;;0.50;;
12059;SDS011;6091;51.432;6.880;2023-12-20T00:51:31;0.65;;;0.65;;
12059;SDS011;6091;51.432;6.880;2023-12-20T00:53:58;0.70;;;0.68;;
12059;SDS011;6091;51.432;6.880;2023-12-20T00:56:25;0.60;;;0.60;;
12059;SDS011;6091;51.432;6.880;2023-12-20T00:58:52;0.57;;;0.57;;
12059;SDS011;6091;51.432;6.880;2023-12-20T01:01:19;0.68;;;0.68;;
12059;SDS011;6091;51.432;6.880;2023-12-20T01:03:47;0.75;;;0.75;;
12059;SDS011;6091;51.432;6.880;2023-12-20T01:06:17;0.77;;;0.50;;
12059;SDS011;6091;51.432;6.880;2023-12-20T01:08:45;0.60;;;0.60;;
12059;SDS011;6091;51.432;6.880;2023-12-20T01:11:12;0.60;;;0.60;;
12059;SDS011;6091;51.432;6.880;2023-12-20T01:13:39;1.13;;;0.70;;
12059;SDS011;6091;51.432;6.880;2023-12-20T01:16:06;0.50;;;0.50;;
12059;SDS011;6091;51.432;6.880;2023-12-20T01:18:37;0.60;;;0.60;;
12059;SDS011;6091;51.432;6.880;2023-12-20T01:21:05;0.50;;;0.50;;
12059;SDS011;6091;51.432;6.880;2023-12-20T01:23:32;0.65;;;0.65;;
12059;SDS011;6091;51.432;6.880;2023-12-20T01:25:59;0.65;;;0.65;;
12059;SDS011;6091;51.432;6.880;2023-12-20T01:28:27;0.88;;;0.80;;
12059;SDS011;6091;51.432;6.880;2023-12-20T01:30:54;0.60;;;0.60;;
12059;SDS011;6091;51.432;6.880;2023-12-20T01:33:21;0.70;;;0.70;;
12059;SDS011;6091;51.432;6.880;2023-12-20T01:35:49;0.60;;;0.60;;
12059;SDS011;6091;51.432;6.880;2023-12-20T01:38:16;0.80;;;0.80;;
12059;SDS011;6091;51.432;6.880;2023-12-20T01:40:45;0.60;;;0.60;;
12059;SDS011;6091;51.432;6.880;2023-12-20T01:43:12;0.60;;;0.60;;
12059;SDS011;6091;51.432;6.880;2023-12-20T01:45:40;0.80;;;0.80;;
12059;SDS011;6091;51.432;6.880;2023-12-20T01:48:08;0.43;;;0.43;;
12059;SDS011;6091;51.432;6.880;2023-12-20T01:50:36;0.52;;;0.52;;
12059;SDS011;6091;51.432;6.880;2023-12-20T01:53:04;0.60;;;0.60;;
12059;SDS011;6091;51.432;6.880;2023-12-20T01:55:35;0.50;;;0.50;;
12059;SDS011;6091;51.432;6.880;2023-12-20T01:58:06;0.60;;;0.60;;
12059;SDS011;6091;51.432;6.880;2023-12-20T02:00:35;0.50;;;0.50;;
12059;SDS011;6091;51.432;6.880;2023-12-20T02:03:03;0.50;;;0.50;;
12059;SDS011;6091;51.432;6.880;2023-12-20T02:05:31;0.70;;;0.70;;
12059;SDS011;6091;51.432;6.880;2023-12-20T02:08:01;0.60;;;0.60;;
12059;SDS011;6091;51.432;6.880;2023-12-20T02:10:29;0.52;;;0.52;;
12059;SDS011;6091;51.432;6.880;2023-12-20T02:12:56;0.68;;;0.60;;
12059;SDS011;6091;51.432;6.880;2023-12-20T02:15:24;0.82;;;0.60;;
12059;SDS011;6091;51.432;6.880;2023-12-20T02:17:51;0.68;;;0.57;;
12059;SDS011;6091;51.432;6.880;2023-12-20T02:20:20;1.00;;;0.55;;
12059;SDS011;6091;51.432;6.880;2023-12-20T02:22:47;0.40;;;0.40;;
12059;SDS011;6091;51.432;6.880;2023-12-20T02:25:14;0.55;;;0.55;;
12059;SDS011;6091;51.432;6.880;2023-12-20T02:27:41;0.85;;;0.73;;
12059;SDS011;6091;51.432;6.880;2023-12-20T02:30:09;0.60;;;0.60;;
12059;SDS011;6091;51.432;6.880;2023-12-20T02:32:37;0.73;;;0.73;;
12059;SDS011;6091;51.432;6.880;2023-12-20T02:35:04;0.80;;;0.60;;
12059;SDS011;6091;51.432;6.880;2023-12-20T02:37:32;0.60;;;0.55;;
12059;SDS011;6091;51.432;6.880;2023-12-20T02:40:00;0.60;;;0.60;;
12059;SDS011;6091;51.432;6.880;2023-12-20T02:42:27;0.70;;;0.52;;
12059;SDS011;6091;51.432;6.880;2023-12-20T02:44:54;0.50;;;0.50;;
12059;SDS011;6091;51.432;6.880;2023-12-20T02:47:21;1.05;;;0.60;;
12059;SDS011;6091;51.432;6.880;2023-12-20T02:49:48;0.60;;;0.60;;
12059;SDS011;6091;51.432;6.880;2023-12-20T02:52:16;0.52;;;0.50;;
12059;SDS011;6091;51.432;6.880;2023-12-20T02:54:43;1.65;;;0.60;;
12059;SDS011;6091;51.432;6.880;2023-12-20T02:57:10;0.60;;;0.60;;
12059;SDS011;6091;51.432;6.880;2023-12-20T02:59:37;0.82;;;0.70;;
12059;SDS011;6091;51.432;6.880;2023-12-20T03:02:04;0.90;;;0.68;;
12059;SDS011;6091;51.432;6.880;2023-12-20T03:04:32;0.85;;;0.65;;
12059;SDS011;6091;51.432;6.880;2023-12-20T03:07:01;0.50;;;0.50;;
12059;SDS011;6091;51.432;6.880;2023-12-20T03:09:28;0.60;;;0.60;;
12059;SDS011;6091;51.432;6.880;2023-12-20T03:12:03;0.60;;;0.60;;
12059;SDS011;6091;51.432;6.880;2023-12-20T03:14:31;0.50;;;0.50;;
12059;SDS011;6091;51.432;6.880;2023-12-20T03:16:58;0.60;;;0.60;;
12059;SDS011;6091;51.432;6.880;2023-12-20T03:19:26;0.57;;;0.52;;
12059;SDS011;6091;51.432;6.880;2023-12-20T03:21:53;0.73;;;0.50;;
12059;SDS011;6091;51.432;6.880;2023-12-20T03:24:20;0.60;;;0.60;;
12059;SDS011;6091;51.432;6.880;2023-12-20T03:26:47;0.60;;;0.60;;
12059;SDS011;6091;51.432;6.880;2023-12-20T03:29:14;0.60;;;0.60;;
12059;SDS011;6091;51.432;6.880;2023-12-20T03:31:41;0.77;;;0.73;;
12059;SDS011;6091;51.432;6.880;2023-12-20T03:34:08;0.50;;;0.50;;
12059;SDS011;6091;51.432;6.880;2023-12-20T03:36:35;0.75;;;0.75;;
12059;SDS011;6091;51.432;6.880;2023-12-20T03:39:02;0.75;;;0.60;;
12059;SDS011;6091;51.432;6.880;2023-12-20T03:41:29;0.80;;;0.50;;
12059;SDS011;6091;51.432;6.880;2023-12-20T03:43:56;0.68;;;0.60;;
12059;SDS011;6091;51.432;6.880;2023-12-20T03:46:23;0.80;;;0.60;;
12059;SDS011;6091;51.432;6.880;2023-12-20T03:48:51;0.88;;;0.60;;
12059;SDS011;6091;51.432;6.880;2023-12-20T03:51:18;0.98;;;0.70;;
12059;SDS011;6091;51.432;6.880;2023-12-20T03:53:45;1.38;;;0.63;;
12059;SDS011;6091;51.432;6.880;2023-12-20T03:56:12;0.60;;;0.57;;
12059;SDS011;6091;51.432;6.880;2023-12-20T03:58:40;0.82;;;0.73;;
12059;SDS011;6091;51.432;6.880;2023-12-20T04:01:11;0.85;;;0.60;;
12059;SDS011;6091;51.432;6.880;2023-12-20T04:03:39;0.60;;;0.50;;
12059;SDS011;6091;51.432;6.880;2023-12-20T04:06:08;0.80;;;0.63;;
12059;SDS011;6091;51.432;6.880;2023-12-20T04:08:36;0.77;;;0.63;;
12059;SDS011;6091;51.432;6.880;2023-12-20T04:11:03;0.47;;;0.47;;
12059;SDS011;6091;51.432;6.880;2023-12-20T04:13:30;0.60;;;0.60;;
12059;SDS011;6091;51.432;6.880;2023-12-20T04:15:57;1.05;;;0.88;;
12059;SDS011;6091;51.432;6.880;2023-12-20T04:18:24;0.60;;;0.60;;
12059;SDS011;6091;51.432;6.880;2023-12-20T04:20:51;0.40;;;0.40;;
12059;SDS011;6091;51.432;6.880;2023-12-20T04:23:18;0.60;;;0.60;;
12059;SDS011;6091;51.432;6.880;2023-12-20T04:25:45;0.68;;;0.68;;
12059;SDS011;6091;51.432;6.880;2023-12-20T04:28:13;0.73;;;0.60;;
12059;SDS011;6091;51.432;6.880;2023-12-20T04:30:40;0.73;;;0.70;;
12059;SDS011;6091;51.432;6.880;2023-12-20T04:33:08;0.50;;;0.50;;
12059;SDS011;6091;51.432;6.880;2023-12-20T04:35:35;1.10;;;0.90;;
12059;SDS011;6091;51.432;6.880;2023-12-20T04:38:02;0.68;;;0.50;;
12059;SDS011;6091;51.432;6.880;2023-12-20T04:40:30;0.50;;;0.50;;
12059;SDS011;6091;51.432;6.880;2023-12-20T04:42:57;0.40;;;0.40;;
12059;SDS011;6091;51.432;6.880;2023-12-20T04:45:25;0.70;;;0.70;;
12059;SDS011;6091;51.432;6.880;2023-12-20T04:47:52;0.70;;;0.60;;
12059;SDS011;6091;51.432;6.880;2023-12-20T04:50:19;1.17;;;0.60;;
12059;SDS011;6091;51.432;6.880;2023-12-20T04:52:48;0.70;;;0.55;;
12059;SDS011;6091;51.432;6.880;2023-12-20T04:55:15;0.90;;;0.75;;
12059;SDS011;6091;51.432;6.880;2023-12-20T04:57:42;0.60;;;0.60;;
12059;SDS011;6091;51.432;6.880;2023-12-20T05:00:10;0.70;;;0.65;;
12059;SDS011;6091;51.432;6.880;2023-12-20T05:02:38;1.00;;;0.60;;
12059;SDS011;6091;51.432;6.880;2023-12-20T05:05:05;1.20;;;0.80;;
12059;SDS011;6091;51.432;6.880;2023-12-20T05:07:33;1.02;;;0.80;;
12059;SDS011;6091;51.432;6.880;2023-12-20T05:10:00;1.30;;;0.70;;
12059;SDS011;6091;51.432;6.880;2023-12-20T05:12:30;0.77;;;0.70;;
12059;SDS011;6091;51.432;6.880;2023-12-20T05:14:58;0.93;;;0.80;;
12059;SDS011;6091;51.432;6.880;2023-12-20T05:17:26;0.68;;;0.60;;
12059;SDS011;6091;51.432;6.880;2023-12-20T05:19:53;1.23;;;0.90;;
12059;SDS011;6091;51.432;6.880;2023-12-20T05:22:20;0.60;;;0.60;;
12059;SDS011;6091;51.432;6.880;2023-12-20T05:24:47;0.88;;;0.70;;
12059;SDS011;6091;51.432;6.880;2023-12-20T05:27:15;1.30;;;0.70;;
12059;SDS011;6091;51.432;6.880;2023-12-20T05:29:42;0.68;;;0.68;;
12059;SDS011;6091;51.432;6.880;2023-12-20T05:32:09;0.90;;;0.80;;
12059;SDS011;6091;51.432;6.880;2023-12-20T05:34:36;0.98;;;0.68;;
12059;SDS011;6091;51.432;6.880;2023-12-20T05:37:04;0.60;;;0.60;;
12059;SDS011;6091;51.432;6.880;2023-12-20T05:39:31;0.73;;;0.68;;
12059;SDS011;6091;51.432;6.880;2023-12-20T05:41:58;1.10;;;0.80;;
12059;SDS011;6091;51.432;6.880;2023-12-20T05:44:25;1.27;;;0.70;;
12059;SDS011;6091;51.432;6.880;2023-12-20T05:46:52;0.90;;;0.73;;
12059;SDS011;6091;51.432;6.880;2023-12-20T05:49:19;1.20;;;0.70;;
12059;SDS011;6091;51.432;6.880;2023-12-20T05:51:48;1.67;;;0.80;;
12059;SDS011;6091;51.432;6.880;2023-12-20T05:54:17;0.60;;;0.60;;
12059;SDS011;6091;51.432;6.880;2023-12-20T05:56:45;1.80;;;0.90;;
12059;SDS011;6091;51.432;6.880;2023-12-20T05:59:12;0.50;;;0.50;;
12059;SDS011;6091;51.432;6.880;2023-12-20T06:01:40;0.75;;;0.70;;
12059;SDS011;6091;51.432;6.880;2023-12-20T06:04:07;0.73;;;0.70;;
12059;SDS011;6091;51.432;6.880;2023-12-20T06:06:34;0.80;;;0.80;;
12059;SDS011;6091;51.432;6.880;2023-12-20T06:09:08;1.02;;;0.73;;
12059;SDS011;6091;51.432;6.880;2023-12-20T06:11:36;1.38;;;0.65;;
12059;SDS011;6091;51.432;6.880;2023-12-20T06:14:03;0.90;;;0.70;;
12059;SDS011;6091;51.432;6.880;2023-12-20T06:16:31;1.70;;;0.88;;
12059;SDS011;6091;51.432;6.880;2023-12-20T06:18:58;0.95;;;0.80;;
12059;SDS011;6091;51.432;6.880;2023-12-20T06:21:25;1.70;;;0.90;;
12059;SDS011;6091;51.432;6.880;2023-12-20T06:23:52;0.93;;;0.70;;
12059;SDS011;6091;51.432;6.880;2023-12-20T06:26:19;1.55;;;0.90;;
12059;SDS011;6091;51.432;6.880;2023-12-20T06:28:46;0.55;;;0.50;;
12059;SDS011;6091;51.432;6.880;2023-12-20T06:31:14;1.02;;;0.63;;
12059;SDS011;6091;51.432;6.880;2023-12-20T06:33:42;1.02;;;0.80;;
12059;SDS011;6091;51.432;6.880;2023-12-20T06:36:13;1.00;;;0.90;;
12059;SDS011;6091;51.432;6.880;2023-12-20T06:38:40;1.20;;;0.80;;
12059;SDS011;6091;51.432;6.880;2023-12-20T06:41:08;1.58;;;1.02;;
12059;SDS011;6091;51.432;6.880;2023-12-20T06:43:42;1.00;;;0.80;;
12059;SDS011;6091;51.432;6.880;2023-12-20T06:46:15;0.93;;;0.80;;
12059;SDS011;6091;51.432;6.880;2023-12-20T06:48:44;1.17;;;0.95;;
12059;SDS011;6091;51.432;6.880;2023-12-20T06:51:15;1.48;;;0.70;;
12059;SDS011;6091;51.432;6.880;2023-12-20T06:53:44;1.63;;;0.88;;
12059;SDS011;6091;51.432;6.880;2023-12-20T06:56:11;1.08;;;1.00;;
12059;SDS011;6091;51.432;6.880;2023-12-20T06:58:45;1.15;;;0.70;;
12059;SDS011;6091;51.432;6.880;2023-12-20T07:01:13;1.30;;;0.90;;
12059;SDS011;6091;51.432;6.880;2023-12-20T07:03:42;0.98;;;0.68;;
12059;SDS011;6091;51.432;6.880;2023-12-20T07:06:09;1.10;;;0.90;;
12059;SDS011;6091;51.432;6.880;2023-12-20T07:08:36;0.98;;;0.73;;
12059;SDS011;6091;51.432;6.880;2023-12-20T07:11:03;1.40;;;0.90;;
12059;SDS011;6091;51.432;6.880;2023-12-20T07:13:30;0.90;;;0.90;;
12059;SDS011;6091;51.432;6.880;2023-12-20T07:15:57;1.95;;;0.90;;
12059;SDS011;6091;51.432;6.880;2023-12-20T07:18:24;0.85;;;0.70;;
12059;SDS011;6091;51.432;6.880;2023-12-20T07:20:52;1.75;;;0.77;;
12059;SDS011;6091;51.432;6.880;2023-12-20T07:23:20;1.98;;;0.90;;
12059;SDS011;6091;51.432;6.880;2023-12-20T07:25:52;2.47;;;0.70;;
12059;SDS011;6091;51.432;6.880;2023-12-20T07:28:25;1.90;;;1.10;;
12059;SDS011;6091;51.432;6.880;2023-12-20T07:30:53;2.17;;;0.85;;
12059;SDS011;6091;51.432;6.880;2023-12-20T07:33:20;1.48;;;0.90;;
12059;SDS011;6091;51.432;6.880;2023-12-20T07:35:48;1.98;;;0.82;;
12059;SDS011;6091;51.432;6.880;2023-12-20T07:38:15;1.38;;;0.85;;
12059;SDS011;6091;51.432;6.880;2023-12-20T07:40:42;1.42;;;1.00;;
12059;SDS011;6091;51.432;6.880;2023-12-20T07:43:09;1.73;;;0.98;;
12059;SDS011;6091;51.432;6.880;2023-12-20T07:45:36;1.20;;;0.90;;
12059;SDS011;6091;51.432;6.880;2023-12-20T07:48:04;2.58;;;1.02;;
12059;SDS011;6091;51.432;6.880;2023-12-20T07:50:34;2.47;;;1.00;;
12059;SDS011;6091;51.432;6.880;2023-12-20T07:53:01;3.05;;;1.42;;
12059;SDS011;6091;51.432;6.880;2023-12-20T07:55:29;2.55;;;1.27;;
12059;SDS011;6091;51.432;6.880;2023-12-20T07:57:57;4.57;;;1.63;;
12059;SDS011;6091;51.432;6.880;2023-12-20T08:00:25;4.28;;;1.70;;
12059;SDS011;6091;51.432;6.880;2023-12-20T08:02:53;1.30;;;1.10;;
12059;SDS011;6091;51.432;6.880;2023-12-20T08:05:20;2.95;;;1.30;;
12059;SDS011;6091;51.432;6.880;2023-12-20T08:07:47;2.78;;;1.23;;
12059;SDS011;6091;51.432;6.880;2023-12-20T08:10:14;2.75;;;1.23;;
12059;SDS011;6091;51.432;6.880;2023-12-20T08:12:42;2.00;;;1.00;;
12059;SDS011;6091;51.432;6.880;2023-12-20T08:15:10;1.23;;;1.05;;
12059;SDS011;6091;51.432;6.880;2023-12-20T08:17:37;3.40;;;1.10;;
12059;SDS011;6091;51.432;6.880;2023-12-20T08:20:04;2.40;;;1.30;;
12059;SDS011;6091;51.432;6.880;2023-12-20T08:22:32;3.83;;;1.17;;
12059;SDS011;6091;51.432;6.880;2023-12-20T08:24:59;1.77;;;1.20;;
12059;SDS011;6091;51.432;6.880;2023-12-20T08:27:27;3.60;;;1.30;;
12059;SDS011;6091;51.432;6.880;2023-12-20T08:29:54;2.33;;;1.20;;
12059;SDS011;6091;51.432;6.880;2023-12-20T08:32:22;2.42;;;1.45;;
12059;SDS011;6091;51.432;6.880;2023-12-20T08:34:52;3.92;;;1.60;;
12059;SDS011;6091;51.432;6.880;2023-12-20T08:37:19;2.50;;;1.30;;
12059;SDS011;6091;51.432;6.880;2023-12-20T08:39:47;2.17;;;1.08;;
12059;SDS011;6091;51.432;6.880;2023-12-20T08:42:14;1.95;;;1.42;;
12059;SDS011;6091;51.432;6.880;2023-12-20T08:44:44;1.70;;;1.13;;
12059;SDS011;6091;51.432;6.880;2023-12-20T08:47:11;3.38;;;1.23;;
12059;SDS011;6091;51.432;6.880;2023-12-20T08:49:39;1.30;;;1.20;;
12059;SDS011;6091;51.432;6.880;2023-12-20T08:52:06;1.35;;;1.08;;
12059;SDS011;6091;51.432;6.880;2023-12-20T08:54:34;3.92;;;1.50;;
12059;SDS011;6091;51.432;6.880;2023-12-20T08:57:01;2.15;;;1.30;;
12059;SDS011;6091;51.432;6.880;2023-12-20T08:59:28;2.63;;;1.45;;
12059;SDS011;6091;51.432;6.880;2023-12-20T09:01:55;3.42;;;1.60;;
12059;SDS011;6091;51.432;6.880;2023-12-20T09:04:22;3.15;;;1.70;;
12059;SDS011;6091;51.432;6.880;2023-12-20T09:06:49;2.88;;;1.30;;
12059;SDS011;6091;51.432;6.880;2023-12-20T09:09:16;4.15;;;1.60;;
12059;SDS011;6091;51.432;6.880;2023-12-20T09:11:44;5.85;;;1.77;;
12059;SDS011;6091;51.432;6.880;2023-12-20T09:14:12;3.22;;;1.40;;
12059;SDS011;6091;51.432;6.880;2023-12-20T09:16:40;2.97;;;1.20;;
12059;SDS011;6091;51.432;6.880;2023-12-20T09:19:07;2.28;;;1.33;;
12059;SDS011;6091;51.432;6.880;2023-12-20T09:21:34;2.80;;;1.70;;
12059;SDS011;6091;51.432;6.880;2023-12-20T09:24:01;2.83;;;1.40;;
12059;SDS011;6091;51.432;6.880;2023-12-20T09:26:29;2.88;;;1.38;;
12059;SDS011;6091;51.432;6.880;2023-12-20T09:28:56;3.97;;;1.58;;
12059;SDS011;6091;51.432;6.880;2023-12-20T09:31:23;7.60;;;1.45;;
12059;SDS011;6091;51.432;6.880;2023-12-20T09:33:50;4.10;;;1.45;;
12059;SDS011;6091;51.432;6.880;2023-12-20T09:36:17;3.50;;;1.52;;
12059;SDS011;6091;51.432;6.880;2023-12-20T09:38:45;3.63;;;1.30;;
12059;SDS011;6091;51.432;6.880;2023-12-20T09:41:13;2.22;;;1.30;;
12059;SDS011;6091;51.432;6.880;2023-12-20T09:43:41;3.08;;;1.58;;
12059;SDS011;6091;51.432;6.880;2023-12-20T09:46:11;2.38;;;1.20;;
12059;SDS011;6091;51.432;6.880;2023-12-20T09:48:45;2.97;;;1.30;;
12059;SDS011;6091;51.432;6.880;2023-12-20T09:51:12;4.18;;;1.70;;
12059;SDS011;6091;51.432;6.880;2023-12-20T09:53:41;1.65;;;1.40;;
12059;SDS011;6091;51.432;6.880;2023-12-20T09:56:10;3.55;;;1.30;;
12059;SDS011;6091;51.432;6.880;2023-12-20T09:58:39;3.70;;;1.42;;
12059;SDS011;6091;51.432;6.880;2023-12-20T10:01:06;1.70;;;1.30;;
12059;SDS011;6091;51.432;6.880;2023-12-20T10:03:35;6.80;;;1.75;;
12059;SDS011;6091;51.432;6.880;2023-12-20T10:06:07;3.80;;;1.73;;
12059;SDS011;6091;51.432;6.880;2023-12-20T10:08:35;4.53;;;1.77;;
12059;SDS011;6091;51.432;6.880;2023-12-20T10:11:02;3.25;;;1.42;;
12059;SDS011;6091;51.432;6.880;2023-12-20T10:13:31;6.97;;;2.40;;
12059;SDS011;6091;51.432;6.880;2023-12-20T10:15:59;7.75;;;2.95;;
12059;SDS011;6091;51.432;6.880;2023-12-20T10:18:28;6.35;;;2.60;;
12059;SDS011;6091;51.432;6.880;2023-12-20T10:21:05;6.97;;;2.00;;
12059;SDS011;6091;51.432;6.880;2023-12-20T10:23:36;5.50;;;2.28;;
12059;SDS011;6091;51.432;6.880;2023-12-20T10:26:05;5.93;;;2.35;;
12059;SDS011;6091;51.432;6.880;2023-12-20T10:28:33;5.00;;;2.05;;
12059;SDS011;6091;51.432;6.880;2023-12-20T10:31:01;4.22;;;1.45;;
12059;SDS011;6091;51.432;6.880;2023-12-20T10:33:30;3.55;;;1.58;;
12059;SDS011;6091;51.432;6.880;2023-12-20T10:36:04;4.97;;;2.00;;
12059;SDS011;6091;51.432;6.880;2023-12-20T10:38:32;4.20;;;1.67;;
12059;SDS011;6091;51.432;6.880;2023-12-20T10:41:05;5.20;;;1.80;;
12059;SDS011;6091;51.432;6.880;2023-12-20T10:43:35;3.28;;;1.58;;
12059;SDS011;6091;51.432;6.880;2023-12-20T10:46:04;4.55;;;1.70;;
12059;SDS011;6091;51.432;6.880;2023-12-20T10:48:32;4.25;;;2.10;;
12059;SDS011;6091;51.432;6.880;2023-12-20T10:51:01;5.20;;;1.63;;
12059;SDS011;6091;51.432;6.880;2023-12-20T10:53:30;4.80;;;2.03;;
12059;SDS011;6091;51.432;6.880;2023-12-20T10:55:59;2.80;;;1.40;;
12059;SDS011;6091;51.432;6.880;2023-12-20T10:58:29;4.00;;;1.73;;
12059;SDS011;6091;51.432;6.880;2023-12-20T11:01:00;4.00;;;2.00;;
12059;SDS011;6091;51.432;6.880;2023-12-20T11:03:31;3.20;;;1.70;;
12059;SDS011;6091;51.432;6.880;2023-12-20T11:11:49;4.05;;;1.83;;
12059;SDS011;6091;51.432;6.880;2023-12-20T11:14:27;3.08;;;1.73;;
12059;SDS011;6091;51.432;6.880;2023-12-20T11:17:08;2.17;;;1.73;;
12059;SDS011;6091;51.432;6.880;2023-12-20T11:22:22;3.60;;;1.30;;
12059;SDS011;6091;51.432;6.880;2023-12-20T11:24:52;4.30;;;1.50;;
12059;SDS011;6091;51.432;6.880;2023-12-20T11:27:22;2.10;;;1.42;;
12059;SDS011;6091;51.432;6.880;2023-12-20T11:29:51;2.35;;;1.20;;
12059;SDS011;6091;51.432;6.880;2023-12-20T11:34:58;3.08;;;1.20;;
12059;SDS011;6091;51.432;6.880;2023-12-20T11:37:30;5.55;;;1.70;;
12059;SDS011;6091;51.432;6.880;2023-12-20T11:40:06;2.08;;;1.67;;
12059;SDS011;6091;51.432;6.880;2023-12-20T11:42:38;3.40;;;1.20;;
12059;SDS011;6091;51.432;6.880;2023-12-20T11:45:08;3.58;;;1.70;;
12059;SDS011;6091;51.432;6.880;2023-12-20T11:47:49;2.35;;;1.23;;
12059;SDS011;6091;51.432;6.880;2023-12-20T11:50:18;1.98;;;1.02;;
12059;SDS011;6091;51.432;6.880;2023-12-20T11:52:48;3.85;;;1.50;;
12059;SDS011;6091;51.432;6.880;2023-12-20T11:55:15;3.40;;;1.30;;
12059;SDS011;6091;51.432;6.880;2023-12-20T11:57:43;2.63;;;1.27;;
12059;SDS011;6091;51.432;6.880;2023-12-20T12:00:12;3.38;;;1.40;;
12059;SDS011;6091;51.432;6.880;2023-12-20T12:02:40;2.63;;;1.52;;
12059;SDS011;6091;51.432;6.880;2023-12-20T12:05:09;3.67;;;1.63;;
12059;SDS011;6091;51.432;6.880;2023-12-20T12:07:37;1.50;;;1.05;;
12059;SDS011;6091;51.432;6.880;2023-12-20T12:10:05;1.80;;;1.30;;
12059;SDS011;6091;51.432;6.880;2023-12-20T12:12:34;2.35;;;1.40;;
12059;SDS011;6091;51.432;6.880;2023-12-20T12:15:02;3.33;;;1.73;;
12059;SDS011;6091;51.432;6.880;2023-12-20T12:17:30;2.17;;;1.50;;
12059;SDS011;6091;51.432;6.880;2023-12-20T12:20:04;2.05;;;1.67;;
12059;SDS011;6091;51.432;6.880;2023-12-20T12:22:33;4.50;;;1.60;;
12059;SDS011;6091;51.432;6.880;2023-12-20T12:25:09;1.95;;;1.23;;
12059;SDS011;6091;51.432;6.880;2023-12-20T12:27:41;1.83;;;1.08;;
12059;SDS011;6091;51.432;6.880;2023-12-20T12:30:10;1.90;;;1.23;;
12059;SDS011;6091;51.432;6.880;2023-12-20T12:32:40;2.38;;;1.33;;
12059;SDS011;6091;51.432;6.880;2023-12-20T12:35:08;2.40;;;1.55;;
12059;SDS011;6091;51.432;6.880;2023-12-20T12:37:39;2.00;;;1.20;;
12059;SDS011;6091;51.432;6.880;2023-12-20T12:40:11;1.50;;;1.30;;
12059;SDS011;6091;51.432;6.880;2023-12-20T12:42:42;1.63;;;1.20;;
12059;SDS011;6091;51.432;6.880;2023-12-20T12:45:11;1.95;;;1.30;;
12059;SDS011;6091;51.432;6.880;2023-12-20T12:47:39;2.00;;;1.15;;
12059;SDS011;6091;51.432;6.880;2023-12-20T12:50:07;2.78;;;1.08;;
12059;SDS011;6091;51.432;6.880;2023-12-20T12:52:35;1.58;;;1.30;;
12059;SDS011;6091;51.432;6.880;2023-12-20T12:55:05;1.80;;;1.08;;
12059;SDS011;6091;51.432;6.880;2023-12-20T12:57:33;2.33;;;1.20;;
12059;SDS011;6091;51.432;6.880;2023-12-20T13:00:00;2.15;;;1.40;;
12059;SDS011;6091;51.432;6.880;2023-12-20T13:02:29;1.45;;;1.23;;
12059;SDS011;6091;51.432;6.880;2023-12-20T13:04:57;2.38;;;1.40;;
12059;SDS011;6091;51.432;6.880;2023-12-20T13:07:24;2.58;;;1.23;;
12059;SDS011;6091;51.432;6.880;2023-12-20T13:09:51;1.58;;;1.20;;
12059;SDS011;6091;51.432;6.880;2023-12-20T13:12:19;2.75;;;1.30;;
12059;SDS011;6091;51.432;6.880;2023-12-20T13:14:46;1.95;;;1.23;;
12059;SDS011;6091;51.432;6.880;2023-12-20T13:17:14;2.03;;;1.25;;
12059;SDS011;6091;51.432;6.880;2023-12-20T13:19:41;3.15;;;1.60;;
12059;SDS011;6091;51.432;6.880;2023-12-20T13:22:10;2.10;;;1.20;;
12059;SDS011;6091;51.432;6.880;2023-12-20T13:24:38;2.58;;;1.30;;
12059;SDS011;6091;51.432;6.880;2023-12-20T13:27:05;2.97;;;1.40;;
12059;SDS011;6091;51.432;6.880;2023-12-20T13:29:33;2.63;;;1.40;;
12059;SDS011;6091;51.432;6.880;2023-12-20T13:32:03;1.85;;;1.20;;
12059;SDS011;6091;51.432;6.880;2023-12-20T13:34:32;5.68;;;1.20;;
12059;SDS011;6091;51.432;6.880;2023-12-20T13:36:59;2.63;;;1.30;;
12059;SDS011;6091;51.432;6.880;2023-12-20T13:39:27;1.75;;;1.08;;
12059;SDS011;6091;51.432;6.880;2023-12-20T13:41:55;2.08;;;1.35;;
12059;SDS011;6091;51.432;6.880;2023-12-20T13:44:26;2.70;;;1.20;;
12059;SDS011;6091;51.432;6.880;2023-12-20T13:46:54;3.17;;;1.17;;
12059;SDS011;6091;51.432;6.880;2023-12-20T13:49:21;2.15;;;1.20;;
12059;SDS011;6091;51.432;6.880;2023-12-20T13:51:53;1.80;;;1.30;;
12059;SDS011;6091;51.432;6.880;2023-12-20T13:54:21;4.88;;;1.13;;
12059;SDS011;6091;51.432;6.880;2023-12-20T13:56:48;4.05;;;1.27;;
12059;SDS011;6091;51.432;6.880;2023-12-20T13:59:34;2.92;;;1.30;;
12059;SDS011;6091;51.432;6.880;2023-12-20T14:02:01;1.77;;;1.10;;
12059;SDS011;6091;51.432;6.880;2023-12-20T14:04:30;4.70;;;1.30;;
12059;SDS011;6091;51.432;6.880;2023-12-20T14:07:08;2.90;;;1.50;;
12059;SDS011;6091;51.432;6.880;2023-12-20T14:09:39;1.80;;;1.17;;
12059;SDS011;6091;51.432;6.880;2023-12-20T14:12:13;1.98;;;1.35;;
12059;SDS011;6091;51.432;6.880;2023-12-20T14:14:41;1.90;;;1.20;;
12059;SDS011;6091;51.432;6.880;2023-12-20T14:17:08;2.00;;;1.10;;
12059;SDS011;6091;51.432;6.880;2023-12-20T14:19:36;3.38;;;1.20;;
12059;SDS011;6091;51.432;6.880;2023-12-20T14:22:03;1.45;;;1.17;;
12059;SDS011;6091;51.432;6.880;2023-12-20T14:24:31;2.65;;;1.30;;
12059;SDS011;6091;51.432;6.880;2023-12-20T14:27:00;2.65;;;1.40;;
12059;SDS011;6091;51.432;6.880;2023-12-20T14:29:28;1.95;;;1.40;;
12059;SDS011;6091;51.432;6.880;2023-12-20T14:31:56;2.00;;;0.98;;
12059;SDS011;6091;51.432;6.880;2023-12-20T14:34:23;7.00;;;1.30;;
12059;SDS011;6091;51.432;6.880;2023-12-20T14:36:51;1.85;;;1.30;;
12059;SDS011;6091;51.432;6.880;2023-12-20T14:39:19;2.45;;;1.30;;
12059;SDS011;6091;51.432;6.880;2023-12-20T14:41:47;2.92;;;1.33;;
12059;SDS011;6091;51.432;6.880;2023-12-20T14:44:15;3.03;;;1.60;;
12059;SDS011;6091;51.432;6.880;2023-12-20T14:46:43;3.00;;;1.50;;
12059;SDS011;6091;51.432;6.880;2023-12-20T14:49:10;3.88;;;1.58;;
12059;SDS011;6091;51.432;6.880;2023-12-20T14:51:39;3.95;;;1.42;;
12059;SDS011;6091;51.432;6.880;2023-12-20T14:54:06;2.65;;;1.50;;
12059;SDS011;6091;51.432;6.880;2023-12-20T14:56:37;2.53;;;1.30;;
12059;SDS011;6091;51.432;6.880;2023-12-20T14:59:04;3.20;;;1.42;;
12059;SDS011;6091;51.432;6.880;2023-12-20T15:01:32;1.52;;;1.10;;
12059;SDS011;6091;51.432;6.880;2023-12-20T15:04:00;3.58;;;1.50;;
12059;SDS011;6091;51.432;6.880;2023-12-20T15:06:28;6.40;;;2.38;;
12059;SDS011;6091;51.432;6.880;2023-12-20T15:08:55;2.63;;;1.40;;
12059;SDS011;6091;51.432;6.880;2023-12-20T15:11:22;3.13;;;1.20;;
12059;SDS011;6091;51.432;6.880;2023-12-20T15:13:50;3.38;;;1.75;;
12059;SDS011;6091;51.432;6.880;2023-12-20T15:16:22;2.25;;;1.50;;
12059;SDS011;6091;51.432;6.880;2023-12-20T15:18:50;2.85;;;1.40;;